KBXA/BXA METAR and TAF weather

Enter ICAO airport designator
Station Type Date Time Source
KBXA METAR 2018/06/25 02:15 UTC NOAA

KBXA 250215Z AUTO 00000KT 10SM CLR 29/24 A3001 RMK AO2 T02850237


Station Type Date Time Source
KBXA Decoded METAR 2018/06/25 02:15 UTC NOAA

Bogalusa, George R Carr Memorial Air Field, LA, United States (KBXA) 30-48-49N 089-51-53W
Jun 24, 2018 - 10:15 PM EDT / 2018.06.25 0215 UTC
Wind: Calm:0
Visibility: 10 mile(s):0
Sky conditions: clear
Temperature: 83.3 F (28.5 C)
Dew Point: 74.7 F (23.7 C)
Relative Humidity: 75%
Pressure (altimeter): 30.01 in. Hg (1016 hPa)
ob: KBXA 250215Z AUTO 00000KT 10SM CLR 29/24 A3001 RMK AO2 T02850237
cycle: 2

Station Type Date Time Source
KBXA TAF UTC NOAA

Error!


Example: see airport list